N1334A KPTD-KALB
Flight info
| Callsign | N1334A |
|---|---|
| Flight time | 0h 54m |
| Altitude | 20000 |
| Route | BUGSY |
| Aircraft | TBM9/L-SDFGRWY/S |
Departure
| Time | 2026-05-03 20:49 |
|---|---|
| Airport | Potsdam Municipal Airport Damon Field (KPTD) |
Arrival
| Time | 2026-05-03 21:43 |
|---|---|
| Airport | Albany International Airport (KALB) |
| Time | Latitude | Longitude | Altitude | Speed | Heading |
|---|---|---|---|---|---|
| 2026-05-03 20:35 | 44.67487 | -74.95401 | 475 ft | 0 kts | 316° |
| 2026-05-03 20:40 | 44.67488 | -74.95402 | 475 ft | 2 kts | 316° |
| 2026-05-03 20:41 | 44.67488 | -74.95443 | 479 ft | 5 kts | 174° |
| 2026-05-03 20:41 | 44.67481 | -74.95409 | 478 ft | 4 kts | 79° |
| 2026-05-03 20:41 | 44.67484 | -74.95391 | 476 ft | 0 kts | 73° |
| 2026-05-03 20:43 | 44.67489 | -74.95355 | 476 ft | 11 kts | 97° |
| 2026-05-03 20:43 | 44.67521 | -74.95260 | 475 ft | 22 kts | 45° |
| 2026-05-03 20:43 | 44.67667 | -74.95059 | 476 ft | 34 kts | 43° |
| 2026-05-03 20:44 | 44.67843 | -74.94820 | 476 ft | 36 kts | 44° |
| 2026-05-03 20:44 | 44.67986 | -74.94627 | 475 ft | 20 kts | 44° |
| 2026-05-03 20:44 | 44.68069 | -74.94513 | 474 ft | 0 kts | 44° |
| 2026-05-03 20:44 | 44.68074 | -74.94506 | 476 ft | 5 kts | 43° |
| 2026-05-03 20:45 | 44.68086 | -74.94490 | 475 ft | 0 kts | 45° |
| 2026-05-03 20:45 | 44.68090 | -74.94484 | 476 ft | 4 kts | 51° |
| 2026-05-03 20:45 | 44.68074 | -74.94418 | 477 ft | 1 kts | 132° |
| 2026-05-03 20:45 | 44.68070 | -74.94413 | 477 ft | 0 kts | 131° |
| 2026-05-03 20:46 | 44.68070 | -74.94412 | 477 ft | 0 kts | 131° |
| 2026-05-03 20:47 | 44.68049 | -74.94381 | 479 ft | 10 kts | 133° |
| 2026-05-03 20:47 | 44.67991 | -74.94407 | 479 ft | 0 kts | 225° |
| 2026-05-03 20:48 | 44.67985 | -74.94415 | 477 ft | 11 kts | 223° |
| 2026-05-03 20:48 | 44.67764 | -74.94719 | 477 ft | 77 kts | 225° |
| 2026-05-03 20:48 | 44.67257 | -74.95402 | 646 ft | 115 kts | 219° |
| 2026-05-03 20:49 | 44.66600 | -74.96056 | 1204 ft | 122 kts | 219° |
| 2026-05-03 20:49 | 44.65908 | -74.96807 | 1792 ft | 132 kts | 212° |
| 2026-05-03 20:49 | 44.65006 | -74.97372 | 2209 ft | 148 kts | 198° |
| 2026-05-03 20:49 | 44.63987 | -74.97340 | 2829 ft | 147 kts | 167° |
| 2026-05-03 20:50 | 44.62950 | -74.97002 | 3266 ft | 161 kts | 168° |
| 2026-05-03 20:50 | 44.61855 | -74.96590 | 3838 ft | 160 kts | 161° |
| 2026-05-03 20:50 | 44.60803 | -74.95956 | 4289 ft | 174 kts | 158° |
| 2026-05-03 20:50 | 44.59669 | -74.95317 | 4904 ft | 166 kts | 161° |
| 2026-05-03 20:51 | 44.58554 | -74.94740 | 5394 ft | 175 kts | 156° |
| 2026-05-03 20:51 | 44.57457 | -74.93990 | 5897 ft | 180 kts | 154° |
| 2026-05-03 20:51 | 44.56316 | -74.93263 | 6452 ft | 179 kts | 163° |
| 2026-05-03 20:51 | 44.55129 | -74.92810 | 7047 ft | 176 kts | 162° |
| 2026-05-03 20:52 | 44.54010 | -74.92030 | 7496 ft | 183 kts | 152° |
| 2026-05-03 20:52 | 44.52812 | -74.91163 | 7476 ft | 208 kts | 153° |
| 2026-05-03 20:52 | 44.51546 | -74.90172 | 7784 ft | 205 kts | 149° |
| 2026-05-03 20:52 | 44.50182 | -74.89176 | 7298 ft | 235 kts | 160° |
| 2026-05-03 20:53 | 44.48840 | -74.88508 | 8524 ft | 173 kts | 154° |
| 2026-05-03 20:53 | 44.47847 | -74.87492 | 8250 ft | 212 kts | 143° |
| 2026-05-03 20:53 | 44.46423 | -74.86263 | 7422 ft | 255 kts | 155° |
| 2026-05-03 20:53 | 44.44847 | -74.85288 | 7486 ft | 244 kts | 155° |
| 2026-05-03 20:54 | 44.43298 | -74.84303 | 7399 ft | 244 kts | 158° |
| 2026-05-03 20:54 | 44.40178 | -74.82409 | 7190 ft | 244 kts | 157° |
| 2026-05-03 20:54 | 44.38662 | -74.81389 | 7079 ft | 245 kts | 151° |
| 2026-05-03 20:55 | 44.37269 | -74.79983 | 6959 ft | 245 kts | 138° |
| 2026-05-03 20:55 | 44.36094 | -74.78292 | 6854 ft | 245 kts | 134° |
| 2026-05-03 20:55 | 44.34939 | -74.76535 | 6754 ft | 245 kts | 133° |
| 2026-05-03 20:55 | 44.33796 | -74.74776 | 6650 ft | 244 kts | 133° |
| 2026-05-03 20:56 | 44.32665 | -74.73014 | 6545 ft | 243 kts | 130° |
| 2026-05-03 20:56 | 44.31754 | -74.71018 | 6431 ft | 244 kts | 119° |
| 2026-05-03 20:56 | 44.30965 | -74.68924 | 6330 ft | 244 kts | 118° |
| 2026-05-03 20:56 | 44.30186 | -74.66818 | 6228 ft | 243 kts | 118° |
| 2026-05-03 20:57 | 44.29412 | -74.64715 | 6126 ft | 243 kts | 118° |
| 2026-05-03 20:57 | 44.28642 | -74.62619 | 6025 ft | 243 kts | 118° |
| 2026-05-03 20:57 | 44.27872 | -74.60526 | 5923 ft | 242 kts | 118° |
| 2026-05-03 20:57 | 44.27114 | -74.58461 | 5823 ft | 242 kts | 118° |
| 2026-05-03 20:58 | 44.26349 | -74.56376 | 5722 ft | 242 kts | 118° |
| 2026-05-03 20:58 | 44.25578 | -74.54277 | 5622 ft | 248 kts | 118° |
| 2026-05-03 20:58 | 44.24756 | -74.52061 | 5532 ft | 263 kts | 118° |
| 2026-05-03 20:58 | 44.23896 | -74.49775 | 5510 ft | 268 kts | 118° |
| 2026-05-03 20:59 | 44.23019 | -74.47457 | 5510 ft | 271 kts | 118° |
| 2026-05-03 20:59 | 44.22144 | -74.45119 | 5504 ft | 272 kts | 118° |
| 2026-05-03 20:59 | 44.21270 | -74.42777 | 5505 ft | 273 kts | 118° |
| 2026-05-03 20:59 | 44.20403 | -74.40453 | 5504 ft | 273 kts | 118° |
| 2026-05-03 21:00 | 44.19532 | -74.38106 | 5502 ft | 272 kts | 118° |
| 2026-05-03 21:00 | 44.18947 | -74.36534 | 5501 ft | 269 kts | 118° |
| 2026-05-03 21:00 | 44.17819 | -74.33487 | 5495 ft | 265 kts | 118° |
| 2026-05-03 21:00 | 44.16981 | -74.31211 | 5492 ft | 263 kts | 118° |
| 2026-05-03 21:01 | 44.16149 | -74.28942 | 5492 ft | 263 kts | 118° |
| 2026-05-03 21:01 | 44.15317 | -74.26682 | 5491 ft | 262 kts | 118° |
| 2026-05-03 21:01 | 44.14485 | -74.24422 | 5491 ft | 262 kts | 118° |
| 2026-05-03 21:01 | 44.13651 | -74.22158 | 5492 ft | 262 kts | 118° |
| 2026-05-03 21:02 | 44.12818 | -74.19890 | 5492 ft | 262 kts | 118° |
| 2026-05-03 21:02 | 44.11986 | -74.17637 | 5491 ft | 262 kts | 118° |
| 2026-05-03 21:02 | 44.11154 | -74.15382 | 5491 ft | 262 kts | 118° |
| 2026-05-03 21:02 | 44.10324 | -74.13131 | 5493 ft | 262 kts | 118° |
| 2026-05-03 21:03 | 44.09493 | -74.10877 | 5492 ft | 261 kts | 118° |
| 2026-05-03 21:03 | 44.08677 | -74.08653 | 5491 ft | 262 kts | 118° |
| 2026-05-03 21:03 | 44.07850 | -74.06401 | 5492 ft | 261 kts | 118° |
| 2026-05-03 21:03 | 44.07017 | -74.04144 | 5491 ft | 261 kts | 118° |
| 2026-05-03 21:04 | 44.06187 | -74.01895 | 5491 ft | 261 kts | 118° |
| 2026-05-03 21:04 | 44.05359 | -73.99650 | 5490 ft | 261 kts | 118° |
| 2026-05-03 21:04 | 44.04533 | -73.97400 | 5492 ft | 261 kts | 118° |
| 2026-05-03 21:04 | 44.03701 | -73.95136 | 5490 ft | 261 kts | 118° |
| 2026-05-03 21:05 | 44.02878 | -73.92898 | 5490 ft | 261 kts | 118° |
| 2026-05-03 21:05 | 44.02064 | -73.90685 | 5491 ft | 261 kts | 118° |
| 2026-05-03 21:05 | 44.01238 | -73.88441 | 5492 ft | 261 kts | 118° |
| 2026-05-03 21:05 | 44.00412 | -73.86188 | 5495 ft | 261 kts | 118° |
| 2026-05-03 21:06 | 43.99582 | -73.83936 | 5559 ft | 258 kts | 118° |
| 2026-05-03 21:06 | 43.98781 | -73.81740 | 5779 ft | 252 kts | 117° |
| 2026-05-03 21:06 | 43.97998 | -73.79576 | 5997 ft | 249 kts | 117° |
| 2026-05-03 21:06 | 43.97222 | -73.77435 | 6218 ft | 247 kts | 117° |
| 2026-05-03 21:07 | 43.96448 | -73.75306 | 6447 ft | 246 kts | 117° |
| 2026-05-03 21:07 | 43.95679 | -73.73189 | 6693 ft | 245 kts | 117° |
| 2026-05-03 21:07 | 43.94914 | -73.71084 | 6939 ft | 244 kts | 117° |
| 2026-05-03 21:07 | 43.94148 | -73.68983 | 7188 ft | 244 kts | 117° |
| 2026-05-03 21:08 | 43.93374 | -73.66878 | 7438 ft | 244 kts | 121° |
| 2026-05-03 21:08 | 43.92180 | -73.65210 | 7510 ft | 250 kts | 152° |
| 2026-05-03 21:08 | 43.90491 | -73.64678 | 7512 ft | 255 kts | 184° |
| 2026-05-03 21:08 | 43.88803 | -73.65405 | 7505 ft | 257 kts | 207° |
| 2026-05-03 21:09 | 43.87228 | -73.66611 | 7512 ft | 259 kts | 211° |
| 2026-05-03 21:09 | 43.85668 | -73.67872 | 7512 ft | 260 kts | 211° |
| 2026-05-03 21:09 | 43.84127 | -73.69136 | 7509 ft | 261 kts | 212° |
| 2026-05-03 21:09 | 43.82565 | -73.70421 | 7512 ft | 261 kts | 212° |
| 2026-05-03 21:10 | 43.81026 | -73.71689 | 7506 ft | 243 kts | 212° |
| 2026-05-03 21:10 | 43.79682 | -73.72764 | 7487 ft | 204 kts | 211° |
| 2026-05-03 21:10 | 43.78543 | -73.73660 | 7484 ft | 174 kts | 211° |
| 2026-05-03 21:10 | 43.77517 | -73.74282 | 7482 ft | 151 kts | 198° |
| 2026-05-03 21:11 | 43.76576 | -73.74649 | 7481 ft | 130 kts | 197° |
| 2026-05-03 21:11 | 43.75769 | -73.74966 | 7477 ft | 111 kts | 198° |
| 2026-05-03 21:11 | 43.75082 | -73.75238 | 7443 ft | 96 kts | 196° |
| 2026-05-03 21:11 | 43.74428 | -73.75353 | 7288 ft | 93 kts | 188° |
| 2026-05-03 21:12 | 43.73812 | -73.75446 | 7181 ft | 85 kts | 188° |
| 2026-05-03 21:12 | 43.73231 | -73.75537 | 6997 ft | 83 kts | 188° |
| 2026-05-03 21:12 | 43.72816 | -73.75644 | 4924 ft | 25 kts | 112° |
| 2026-05-03 21:12 | 43.73365 | -73.75835 | 3634 ft | 224 kts | 349° |
| 2026-05-03 21:13 | 43.74682 | -73.76855 | 3956 ft | 223 kts | 316° |
| 2026-05-03 21:13 | 43.75415 | -73.78850 | 3780 ft | 241 kts | 283° |
| 2026-05-03 21:13 | 43.75644 | -73.81165 | 3822 ft | 244 kts | 275° |
| 2026-05-03 21:13 | 43.75753 | -73.83519 | 3854 ft | 247 kts | 274° |
| 2026-05-03 21:14 | 43.75864 | -73.85878 | 3849 ft | 250 kts | 275° |
| 2026-05-03 21:14 | 43.75999 | -73.88286 | 3849 ft | 251 kts | 275° |
| 2026-05-03 21:14 | 43.75922 | -73.90643 | 4147 ft | 236 kts | 253° |
| 2026-05-03 21:14 | 43.74903 | -73.92293 | 4588 ft | 230 kts | 210° |
| 2026-05-03 21:15 | 43.73384 | -73.93133 | 4597 ft | 242 kts | 201° |
| 2026-05-03 21:15 | 43.71706 | -73.93704 | 4459 ft | 253 kts | 191° |
| 2026-05-03 21:15 | 43.69950 | -73.94069 | 4334 ft | 257 kts | 189° |
| 2026-05-03 21:15 | 43.68166 | -73.94398 | 4205 ft | 259 kts | 188° |
| 2026-05-03 21:16 | 43.66379 | -73.94712 | 4143 ft | 258 kts | 188° |
| 2026-05-03 21:16 | 43.64611 | -73.95010 | 4143 ft | 256 kts | 188° |
| 2026-05-03 21:16 | 43.62849 | -73.95291 | 4142 ft | 254 kts | 185° |
| 2026-05-03 21:16 | 43.61111 | -73.95186 | 4142 ft | 254 kts | 174° |
| 2026-05-03 21:17 | 43.59358 | -73.94860 | 4143 ft | 254 kts | 173° |
| 2026-05-03 21:17 | 43.58174 | -73.94631 | 4142 ft | 254 kts | 173° |
| 2026-05-03 21:17 | 43.55858 | -73.94190 | 4143 ft | 254 kts | 173° |
| 2026-05-03 21:17 | 43.54108 | -73.93855 | 4144 ft | 254 kts | 173° |
| 2026-05-03 21:18 | 43.52356 | -73.93507 | 4140 ft | 253 kts | 173° |
| 2026-05-03 21:18 | 43.50609 | -73.93161 | 4144 ft | 254 kts | 173° |
| 2026-05-03 21:18 | 43.48858 | -73.92818 | 4140 ft | 254 kts | 173° |
| 2026-05-03 21:18 | 43.47108 | -73.92480 | 4142 ft | 253 kts | 173° |
| 2026-05-03 21:19 | 43.45360 | -73.92136 | 4143 ft | 254 kts | 173° |
| 2026-05-03 21:19 | 43.43614 | -73.91792 | 4140 ft | 253 kts | 173° |
| 2026-05-03 21:19 | 43.41888 | -73.91451 | 4142 ft | 254 kts | 173° |
| 2026-05-03 21:19 | 43.40138 | -73.91110 | 4141 ft | 253 kts | 173° |
| 2026-05-03 21:20 | 43.38390 | -73.90771 | 4144 ft | 253 kts | 173° |
| 2026-05-03 21:20 | 43.36644 | -73.90433 | 4141 ft | 254 kts | 173° |
| 2026-05-03 21:20 | 43.34897 | -73.90093 | 4142 ft | 253 kts | 173° |
| 2026-05-03 21:20 | 43.33149 | -73.89750 | 4140 ft | 254 kts | 173° |
| 2026-05-03 21:21 | 43.31398 | -73.89409 | 4145 ft | 254 kts | 173° |
| 2026-05-03 21:21 | 43.29648 | -73.89069 | 4144 ft | 253 kts | 173° |
| 2026-05-03 21:21 | 43.27902 | -73.88731 | 4143 ft | 253 kts | 173° |
| 2026-05-03 21:21 | 43.26155 | -73.88396 | 4142 ft | 253 kts | 173° |
| 2026-05-03 21:22 | 43.24407 | -73.88056 | 4145 ft | 254 kts | 173° |
| 2026-05-03 21:22 | 43.22660 | -73.87713 | 4140 ft | 254 kts | 173° |
| 2026-05-03 21:22 | 43.20908 | -73.87370 | 4142 ft | 253 kts | 173° |
| 2026-05-03 21:22 | 43.19181 | -73.87037 | 4140 ft | 254 kts | 173° |
| 2026-05-03 21:23 | 43.17431 | -73.86698 | 4143 ft | 253 kts | 173° |
| 2026-05-03 21:23 | 43.15687 | -73.86364 | 4141 ft | 253 kts | 173° |
| 2026-05-03 21:23 | 43.13944 | -73.86026 | 4143 ft | 253 kts | 173° |
| 2026-05-03 21:23 | 43.12192 | -73.85688 | 4145 ft | 254 kts | 173° |
| 2026-05-03 21:24 | 43.10439 | -73.85350 | 4140 ft | 253 kts | 173° |
| 2026-05-03 21:24 | 43.08693 | -73.85012 | 4141 ft | 253 kts | 173° |
| 2026-05-03 21:24 | 43.06947 | -73.84674 | 4140 ft | 253 kts | 173° |
| 2026-05-03 21:24 | 43.05221 | -73.84342 | 4139 ft | 253 kts | 173° |
| 2026-05-03 21:25 | 43.03480 | -73.84014 | 4140 ft | 252 kts | 173° |
| 2026-05-03 21:25 | 43.01739 | -73.83675 | 4141 ft | 253 kts | 173° |
| 2026-05-03 21:25 | 42.99999 | -73.83336 | 4141 ft | 253 kts | 173° |
| 2026-05-03 21:25 | 42.98257 | -73.83001 | 4140 ft | 253 kts | 173° |
| 2026-05-03 21:26 | 42.96522 | -73.82654 | 4137 ft | 252 kts | 170° |
| 2026-05-03 21:26 | 42.94786 | -73.82375 | 4152 ft | 252 kts | 187° |
| 2026-05-03 21:26 | 42.93144 | -73.83029 | 4159 ft | 241 kts | 204° |
| 2026-05-03 21:26 | 42.91680 | -73.84084 | 4157 ft | 236 kts | 212° |
| 2026-05-03 21:27 | 42.90281 | -73.85243 | 4156 ft | 234 kts | 212° |
| 2026-05-03 21:27 | 42.88902 | -73.86401 | 4154 ft | 233 kts | 213° |
| 2026-05-03 21:27 | 42.87526 | -73.87564 | 4153 ft | 232 kts | 213° |
| 2026-05-03 21:27 | 42.86153 | -73.88725 | 4151 ft | 232 kts | 213° |
| 2026-05-03 21:28 | 42.84781 | -73.89888 | 4151 ft | 232 kts | 213° |
| 2026-05-03 21:28 | 42.83413 | -73.91049 | 4148 ft | 232 kts | 213° |
| 2026-05-03 21:28 | 42.82041 | -73.92212 | 4146 ft | 232 kts | 213° |
| 2026-05-03 21:28 | 42.80669 | -73.93372 | 4146 ft | 232 kts | 213° |
| 2026-05-03 21:29 | 42.79298 | -73.94533 | 4145 ft | 232 kts | 213° |
| 2026-05-03 21:29 | 42.77927 | -73.95696 | 4141 ft | 232 kts | 213° |
| 2026-05-03 21:29 | 42.76558 | -73.96857 | 4138 ft | 232 kts | 213° |
| 2026-05-03 21:29 | 42.75192 | -73.98016 | 4139 ft | 232 kts | 213° |
| 2026-05-03 21:30 | 42.73825 | -73.99176 | 4139 ft | 232 kts | 213° |
| 2026-05-03 21:30 | 42.72473 | -74.00323 | 4139 ft | 232 kts | 213° |
| 2026-05-03 21:30 | 42.71105 | -74.01484 | 4141 ft | 232 kts | 213° |
| 2026-05-03 21:30 | 42.69737 | -74.02644 | 4142 ft | 232 kts | 213° |
| 2026-05-03 21:31 | 42.68367 | -74.03805 | 4141 ft | 232 kts | 213° |
| 2026-05-03 21:31 | 42.67001 | -74.04969 | 4144 ft | 232 kts | 213° |
| 2026-05-03 21:31 | 42.65628 | -74.06133 | 4142 ft | 232 kts | 213° |
| 2026-05-03 21:31 | 42.64254 | -74.07297 | 4141 ft | 232 kts | 213° |
| 2026-05-03 21:32 | 42.62882 | -74.08463 | 4138 ft | 233 kts | 213° |
| 2026-05-03 21:32 | 42.61512 | -74.09626 | 4144 ft | 232 kts | 213° |
| 2026-05-03 21:32 | 42.60130 | -74.10708 | 4138 ft | 232 kts | 204° |
| 2026-05-03 21:32 | 42.58557 | -74.11158 | 4138 ft | 233 kts | 181° |
| 2026-05-03 21:33 | 42.56958 | -74.10755 | 4137 ft | 234 kts | 164° |
| 2026-05-03 21:33 | 42.55544 | -74.09685 | 4141 ft | 235 kts | 141° |
| 2026-05-03 21:33 | 42.54372 | -74.08154 | 4137 ft | 234 kts | 128° |
| 2026-05-03 21:33 | 42.53680 | -74.06169 | 4137 ft | 235 kts | 102° |
| 2026-05-03 21:34 | 42.53746 | -74.03970 | 4140 ft | 235 kts | 77° |
| 2026-05-03 21:34 | 42.54303 | -74.01889 | 4139 ft | 235 kts | 67° |
| 2026-05-03 21:34 | 42.55134 | -73.99998 | 4139 ft | 234 kts | 49° |
| 2026-05-03 21:34 | 42.55919 | -73.98995 | 4138 ft | 234 kts | 37° |
| 2026-05-03 21:35 | 42.57224 | -73.97668 | 4143 ft | 234 kts | 38° |
| 2026-05-03 21:35 | 42.58493 | -73.96280 | 4143 ft | 234 kts | 39° |
| 2026-05-03 21:35 | 42.59760 | -73.94894 | 4142 ft | 234 kts | 39° |
| 2026-05-03 21:35 | 42.61030 | -73.93511 | 4145 ft | 234 kts | 39° |
| 2026-05-03 21:36 | 42.62302 | -73.92127 | 4142 ft | 234 kts | 39° |
| 2026-05-03 21:36 | 42.63576 | -73.90739 | 4142 ft | 234 kts | 39° |
| 2026-05-03 21:36 | 42.64844 | -73.89357 | 4141 ft | 234 kts | 39° |
| 2026-05-03 21:36 | 42.66113 | -73.87972 | 4139 ft | 234 kts | 39° |
| 2026-05-03 21:37 | 42.67384 | -73.86588 | 4141 ft | 234 kts | 39° |
| 2026-05-03 21:37 | 42.68655 | -73.85203 | 4143 ft | 234 kts | 39° |
| 2026-05-03 21:37 | 42.69853 | -73.83746 | 4147 ft | 235 kts | 50° |
| 2026-05-03 21:37 | 42.70791 | -73.81929 | 4157 ft | 234 kts | 57° |
| 2026-05-03 21:38 | 42.71669 | -73.80064 | 4169 ft | 234 kts | 58° |
| 2026-05-03 21:38 | 42.72548 | -73.78186 | 4168 ft | 234 kts | 58° |
| 2026-05-03 21:38 | 42.73380 | -73.76271 | 4169 ft | 235 kts | 60° |
| 2026-05-03 21:38 | 42.74231 | -73.74358 | 3996 ft | 241 kts | 59° |
| 2026-05-03 21:39 | 42.75110 | -73.72389 | 3765 ft | 245 kts | 59° |
| 2026-05-03 21:39 | 42.76000 | -73.70398 | 3508 ft | 247 kts | 59° |
| 2026-05-03 21:39 | 42.76888 | -73.68416 | 3264 ft | 247 kts | 58° |
| 2026-05-03 21:39 | 42.77987 | -73.66666 | 3168 ft | 242 kts | 40° |
| 2026-05-03 21:40 | 42.79462 | -73.65518 | 2805 ft | 248 kts | 20° |
| 2026-05-03 21:40 | 42.81124 | -73.65098 | 2709 ft | 240 kts | 0° |
| 2026-05-03 21:40 | 42.82587 | -73.65833 | 3015 ft | 216 kts | 308° |
| 2026-05-03 21:40 | 42.82857 | -73.67728 | 3329 ft | 213 kts | 259° |
| 2026-05-03 21:41 | 42.82072 | -73.69454 | 3294 ft | 222 kts | 225° |
| 2026-05-03 21:41 | 42.81042 | -73.71040 | 3289 ft | 224 kts | 226° |
| 2026-05-03 21:41 | 42.79660 | -73.71971 | 3341 ft | 225 kts | 190° |
| 2026-05-03 21:41 | 42.78274 | -73.71742 | 3498 ft | 223 kts | 152° |
| 2026-05-03 21:42 | 42.77230 | -73.70247 | 3771 ft | 215 kts | 140° |
| 2026-05-03 21:42 | 42.75914 | -73.70009 | 4414 ft | 195 kts | 209° |
| 2026-05-03 21:42 | 42.75157 | -73.71579 | 3606 ft | 229 kts | 251° |
| 2026-05-03 21:42 | 42.74963 | -73.73942 | 2216 ft | 250 kts | 271° |
| 2026-05-03 21:43 | 42.74988 | -73.76141 | 1040 ft | 231 kts | 272° |
| 2026-05-03 21:43 | 42.74989 | -73.77746 | 506 ft | 204 kts | 269° |
| 2026-05-03 21:43 | 42.74965 | -73.79455 | 287 ft | 153 kts | 269° |
| 2026-05-03 21:43 | 42.74944 | -73.80337 | 281 ft | 41 kts | 269° |
| 2026-05-03 21:44 | 42.74928 | -73.80453 | 281 ft | 13 kts | 237° |
| 2026-05-03 21:44 | 42.74829 | -73.80353 | 283 ft | 29 kts | 92° |
| 2026-05-03 21:44 | 42.74831 | -73.80070 | 283 ft | 32 kts | 89° |
| 2026-05-03 21:44 | 42.74839 | -73.79779 | 284 ft | 26 kts | 89° |
| 2026-05-03 21:45 | 42.74841 | -73.79596 | 284 ft | 9 kts | 117° |
| 2026-05-03 21:45 | 42.74790 | -73.79611 | 284 ft | 9 kts | 201° |
| 2026-05-03 21:45 | 42.74724 | -73.79656 | 284 ft | 11 kts | 206° |
| 2026-05-03 21:45 | 42.74710 | -73.79654 | 284 ft | 5 kts | 124° |
| 2026-05-03 21:46 | 42.74704 | -73.79630 | 284 ft | 3 kts | 50° |
| 2026-05-03 21:46 | 42.74721 | -73.79617 | 284 ft | 6 kts | 25° |